createdAt,value
2019-04-04T00:03:45.670Z,5.50
2019-04-04T00:08:51.344Z,5.50
2019-04-04T00:13:56.663Z,5.60
2019-04-04T00:19:02.133Z,5.50
2019-04-04T00:24:09.146Z,5.40
2019-04-04T00:29:16.837Z,5.30
2019-04-04T00:34:21.735Z,5.20
2019-04-04T00:39:27.307Z,5.40
2019-04-04T00:44:32.741Z,5.50
2019-04-04T00:49:38.327Z,5.30
2019-04-04T00:54:45.008Z,5.20
2019-04-04T00:59:53.385Z,5.20
2019-04-04T01:04:57.855Z,5.30
2019-04-04T01:10:03.001Z,5.40
2019-04-04T01:15:08.793Z,5.30
2019-04-04T01:20:14.688Z,5.20
2019-04-04T01:25:20.200Z,5.20
2019-04-04T01:30:27.404Z,5.20
2019-04-04T01:35:33.083Z,5.10
2019-04-04T01:40:38.678Z,5.20
2019-04-04T01:45:44.947Z,5.20
2019-04-04T01:50:53.470Z,5.20
2019-04-04T01:55:58.005Z,5.10
2019-04-04T02:01:03.515Z,5.00
2019-04-04T02:06:09.191Z,5.00
2019-04-04T02:11:14.688Z,4.90
2019-04-04T02:16:20.149Z,4.70
2019-04-04T02:21:28.522Z,4.70
2019-04-04T02:26:35.785Z,4.60
2019-04-04T02:31:45.240Z,4.60
2019-04-04T02:36:50.607Z,4.70
2019-04-04T02:41:56.207Z,4.80
2019-04-04T02:47:01.760Z,4.80
2019-04-04T02:52:07.116Z,4.90
2019-04-04T02:57:12.562Z,5.00
2019-04-04T03:02:17.932Z,5.10
2019-04-04T03:07:23.497Z,5.00
2019-04-04T03:12:29.080Z,5.10
2019-04-04T03:17:34.615Z,5.00
2019-04-04T03:22:40.065Z,5.00
2019-04-04T03:27:45.565Z,4.80
2019-04-04T03:32:54.702Z,4.70
2019-04-04T03:37:59.786Z,4.60
2019-04-04T03:43:05.396Z,4.50
2019-04-04T03:48:10.748Z,4.50
2019-04-04T03:53:17.695Z,4.50
2019-04-04T03:58:27.090Z,4.60
2019-04-04T04:03:30.155Z,4.70
2019-04-04T04:08:35.575Z,4.70
2019-04-04T04:13:40.923Z,4.70
2019-04-04T04:18:46.395Z,4.70
2019-04-04T04:23:56.243Z,4.60
2019-04-04T04:28:58.857Z,4.60
2019-04-04T04:34:04.222Z,4.60
2019-04-04T04:39:09.667Z,4.50
2019-04-04T04:44:15.178Z,4.40
2019-04-04T04:49:23.277Z,4.40
2019-04-04T04:54:28.872Z,4.40
2019-04-04T04:59:34.135Z,4.30
2019-04-04T05:04:39.600Z,4.20
2019-04-04T05:09:45.049Z,4.30
2019-04-04T05:14:50.605Z,4.40
2019-04-04T05:19:56.079Z,4.50
2019-04-04T05:25:08.041Z,4.40
2019-04-04T05:30:09.078Z,4.40
2019-04-04T05:35:15.284Z,4.40
2019-04-04T05:40:23.577Z,4.40
2019-04-04T05:45:28.693Z,4.40
2019-04-04T05:50:34.154Z,4.40
2019-04-04T05:55:41.663Z,4.40
2019-04-04T06:00:48.073Z,4.50
2019-04-04T06:05:53.630Z,4.50
2019-04-04T06:10:59.373Z,4.60
2019-04-04T06:16:05.116Z,4.60
2019-04-04T06:21:11.033Z,4.70
2019-04-04T06:26:16.456Z,4.70
2019-04-04T06:31:21.824Z,4.80
2019-04-04T06:36:27.393Z,4.80
2019-04-04T06:41:32.977Z,5.00
2019-04-04T06:46:38.430Z,5.20
2019-04-04T06:51:46.191Z,5.20
2019-04-04T06:56:51.133Z,5.20
2019-04-04T07:01:56.616Z,5.30
2019-04-04T07:07:02.705Z,5.30
2019-04-04T07:12:20.318Z,5.40
2019-04-04T07:17:16.457Z,5.50
2019-04-04T07:22:24.605Z,5.70
2019-04-04T07:27:28.973Z,5.90
2019-04-04T07:32:34.569Z,5.90
2019-04-04T07:37:40.350Z,5.90
2019-04-04T07:42:48.029Z,6.00
2019-04-04T07:47:52.834Z,5.90
2019-04-04T07:52:58.207Z,5.80
2019-04-04T07:58:03.613Z,5.70
2019-04-04T08:03:09.106Z,5.60
2019-04-04T08:08:14.657Z,5.60
2019-04-04T08:13:20.219Z,5.60
2019-04-04T08:18:25.669Z,5.70
2019-04-04T08:23:31.209Z,6.00
2019-04-04T08:28:36.733Z,6.30
2019-04-04T08:33:42.143Z,6.30
2019-04-04T08:38:47.598Z,6.20
2019-04-04T08:43:53.221Z,6.20
2019-04-04T08:48:58.728Z,6.20
2019-04-04T08:54:04.494Z,6.20
2019-04-04T08:59:10.078Z,6.20
2019-04-04T09:04:15.850Z,5.80
2019-04-04T09:09:21.561Z,5.50
2019-04-04T09:14:27.110Z,5.60
2019-04-04T09:19:32.748Z,5.70
2019-04-04T09:24:38.225Z,5.60
2019-04-04T09:29:43.458Z,5.60
2019-04-04T09:34:49.053Z,5.90
2019-04-04T09:39:54.716Z,6.20
2019-04-04T09:45:00.209Z,6.40
2019-04-04T09:50:07.447Z,6.60
2019-04-04T09:55:13.335Z,7.00
2019-04-04T10:00:21.265Z,7.30
2019-04-04T10:05:26.485Z,7.60
2019-04-04T10:10:31.902Z,7.90
2019-04-04T10:15:37.108Z,8.10
2019-04-04T10:20:42.520Z,8.20
2019-04-04T10:25:48.177Z,8.30
2019-04-04T10:30:53.829Z,8.30
2019-04-04T10:35:59.370Z,8.40
2019-04-04T10:41:04.967Z,8.60
2019-04-04T10:46:10.632Z,8.70
2019-04-04T10:51:16.169Z,8.60
2019-04-04T10:56:21.736Z,8.50
2019-04-04T11:01:27.216Z,8.40
2019-04-04T11:06:32.610Z,8.50
2019-04-04T11:11:38.216Z,8.60
2019-04-04T11:16:43.639Z,8.60
2019-04-04T11:21:49.144Z,8.90
2019-04-04T11:26:54.430Z,9.00
2019-04-04T11:32:00.097Z,8.90
2019-04-04T11:37:05.468Z,8.90
2019-04-04T11:42:12.260Z,8.90
2019-04-04T11:47:17.576Z,8.90
2019-04-04T11:52:23.088Z,8.80
2019-04-04T11:57:28.554Z,8.90
2019-04-04T12:02:34.186Z,8.90
2019-04-04T12:07:39.722Z,9.20
2019-04-04T12:12:45.299Z,9.20
2019-04-04T12:17:50.783Z,9.10
2019-04-04T12:22:56.252Z,9.00
2019-04-04T12:28:01.742Z,9.10
2019-04-04T12:33:07.290Z,9.10
2019-04-04T12:38:12.776Z,8.90
2019-04-04T12:43:18.199Z,8.90
2019-04-04T12:48:23.564Z,8.80
2019-04-04T12:53:29.019Z,8.80
2019-04-04T12:58:34.698Z,8.80
2019-04-04T13:03:40.246Z,9.00
2019-04-04T13:08:45.709Z,9.20
2019-04-04T13:13:51.186Z,9.30
2019-04-04T13:18:56.732Z,9.30
2019-04-04T13:24:02.341Z,9.50
2019-04-04T13:29:07.878Z,9.40
2019-04-04T13:34:13.349Z,9.20
2019-04-04T13:39:19.146Z,9.10
2019-04-04T13:44:24.758Z,9.10
2019-04-04T13:49:30.471Z,9.10
2019-04-04T13:54:35.922Z,9.00
2019-04-04T13:59:41.464Z,9.00
2019-04-04T14:04:47.061Z,9.10
2019-04-04T14:09:52.588Z,9.30
2019-04-04T14:14:58.143Z,9.40
2019-04-04T14:20:03.556Z,9.30
2019-04-04T14:25:09.471Z,9.20
2019-04-04T14:30:15.656Z,9.20
2019-04-04T14:35:21.148Z,9.20
2019-04-04T14:40:26.371Z,9.30
2019-04-04T14:45:31.829Z,9.20
2019-04-04T14:50:37.415Z,9.30
2019-04-04T14:55:42.973Z,9.30
2019-04-04T15:00:48.460Z,9.40
2019-04-04T15:05:53.993Z,9.50
2019-04-04T15:10:59.559Z,9.60
2019-04-04T15:16:15.021Z,9.50
2019-04-04T15:21:20.552Z,9.50
2019-04-04T15:26:26.201Z,9.40
2019-04-04T15:31:31.682Z,9.50
2019-04-04T15:36:37.029Z,9.40
2019-04-04T15:41:42.475Z,9.30
2019-04-04T15:46:47.934Z,9.30
2019-04-04T15:51:53.508Z,9.10
2019-04-04T15:56:58.883Z,9.00
2019-04-04T16:02:04.235Z,8.90
2019-04-04T16:07:10.028Z,8.70
2019-04-04T16:12:15.474Z,8.60
2019-04-04T16:17:21.051Z,8.30
2019-04-04T16:22:26.707Z,8.20
2019-04-04T16:27:32.298Z,8.30
2019-04-04T16:32:37.725Z,8.40
2019-04-04T16:37:43.461Z,8.40
2019-04-04T16:42:48.748Z,8.50
2019-04-04T16:47:54.238Z,8.60
2019-04-04T16:52:59.670Z,8.70
2019-04-04T16:58:05.471Z,8.80
2019-04-04T17:03:10.904Z,8.80
2019-04-04T17:08:16.312Z,8.80
2019-04-04T17:13:21.640Z,8.90
2019-04-04T17:18:27.315Z,8.90
2019-04-04T17:23:32.918Z,8.90
2019-04-04T17:28:38.602Z,8.80
2019-04-04T17:33:44.538Z,8.70
2019-04-04T17:38:50.189Z,8.60
2019-04-04T17:43:55.740Z,8.60
2019-04-04T17:49:01.516Z,8.60
2019-04-04T17:54:07.142Z,8.60
2019-04-04T17:59:12.810Z,8.60
2019-04-04T18:04:18.324Z,8.60
2019-04-04T18:09:31.667Z,8.60
2019-04-04T18:14:31.273Z,8.60
2019-04-04T18:19:36.742Z,8.50
2019-04-04T18:24:42.312Z,8.60
2019-04-04T18:29:47.931Z,8.50
2019-04-04T18:34:53.644Z,8.50
2019-04-04T18:39:59.137Z,8.50
2019-04-04T18:45:04.872Z,8.50
2019-04-04T18:50:10.898Z,8.60
2019-04-04T18:55:19.898Z,8.60
2019-04-04T19:00:23.628Z,8.60
2019-04-04T19:05:29.305Z,8.60
2019-04-04T19:10:34.897Z,8.50
2019-04-04T19:15:40.645Z,8.40
2019-04-04T19:20:46.092Z,8.40
2019-04-04T19:25:51.640Z,8.40
2019-04-04T19:30:58.759Z,8.40
2019-04-04T19:36:04.554Z,8.50
2019-04-04T19:41:09.986Z,8.50
2019-04-04T19:46:15.579Z,8.50
2019-04-04T19:51:21.193Z,8.50
2019-04-04T19:56:26.977Z,8.50
2019-04-04T20:01:32.712Z,8.60
2019-04-04T20:06:38.394Z,8.60
2019-04-04T20:11:43.866Z,8.70
2019-04-04T20:16:49.301Z,8.70
2019-04-04T20:21:56.468Z,8.60
2019-04-04T20:27:02.012Z,8.70
2019-04-04T20:32:07.637Z,8.70
2019-04-04T20:37:13.250Z,8.60
2019-04-04T20:42:18.788Z,8.60
2019-04-04T20:47:24.049Z,8.60
2019-04-04T20:52:29.405Z,8.60
2019-04-04T20:57:34.668Z,8.70
2019-04-04T21:02:40.219Z,8.60
2019-04-04T21:07:46.005Z,8.70
2019-04-04T21:12:51.605Z,8.70
2019-04-04T21:17:57.022Z,8.70
2019-04-04T21:23:02.675Z,8.70
2019-04-04T21:28:08.191Z,8.70
2019-04-04T21:33:13.522Z,8.80
2019-04-04T21:38:19.762Z,8.80
2019-04-04T21:43:25.944Z,8.80
2019-04-04T21:48:31.436Z,8.70
2019-04-04T21:53:37.234Z,8.80
2019-04-04T21:58:42.900Z,8.80
2019-04-04T22:03:48.780Z,8.80
2019-04-04T22:08:54.492Z,8.90
2019-04-04T22:14:00.108Z,8.90
2019-04-04T22:19:05.884Z,8.90
2019-04-04T22:24:11.322Z,8.90
2019-04-04T22:29:16.862Z,8.90
2019-04-04T22:34:22.148Z,8.90
2019-04-04T22:39:27.744Z,8.90
2019-04-04T22:44:35.189Z,8.90
2019-04-04T22:49:40.606Z,8.80
2019-04-04T22:54:46.238Z,8.80
2019-04-04T22:59:51.954Z,8.80
2019-04-04T23:04:57.654Z,8.70
2019-04-04T23:10:03.549Z,8.80
2019-04-04T23:15:10.378Z,8.80
2019-04-04T23:20:16.129Z,8.80
2019-04-04T23:25:21.692Z,8.80
2019-04-04T23:30:27.576Z,8.80
2019-04-04T23:35:33.109Z,8.80
2019-04-04T23:40:38.708Z,8.80
2019-04-04T23:45:44.213Z,8.70
2019-04-04T23:50:49.972Z,8.70
2019-04-04T23:56:07.157Z,8.70
